Time;durP1;ratioP1;P1;durP2;ratioP2;P2;SDS_P1;SDS_P2;PMS_P1;PMS_P2;Temp;Humidity;BMP_temperature;BMP_pressure;BME280_temperature;BME280_humidity;BME280_pressure;Samples;Min_cycle;Max_cycle;Signal;HPM_P1;HPM_P2
2023/06/01 00:01:44;;;;;;;0.10;0.10;;;18.30;99.90;;;;;;5042065;28;20181;-81
2023/06/01 00:04:10;;;;;;;0.10;0.10;;;18.30;99.90;;;;;;5043209;28;20557;-80
2023/06/01 00:06:35;;;;;;;0.10;0.10;;;18.30;99.90;;;;;;5042053;28;20193;-81
2023/06/01 00:09:02;;;;;;;0.10;0.10;;;18.20;99.90;;;;;;5041225;28;20221;-81
2023/06/01 00:11:28;;;;;;;0.10;0.10;;;18.20;99.90;;;;;;5036783;28;20189;-81
2023/06/01 00:13:54;;;;;;;0.10;0.10;;;18.10;99.90;;;;;;5042767;28;20542;-81
2023/06/01 00:16:19;;;;;;;0.10;0.10;;;18.10;99.90;;;;;;5041264;28;20276;-82
2023/06/01 00:18:45;;;;;;;0.10;0.10;;;18.00;99.90;;;;;;5042040;28;20233;-81
2023/06/01 00:21:11;;;;;;;0.10;0.10;;;18.00;99.90;;;;;;5041190;28;20551;-81
2023/06/01 00:23:40;;;;;;;0.10;0.10;;;17.90;99.90;;;;;;5040897;28;20214;-81
2023/06/01 00:26:07;;;;;;;0.10;0.10;;;17.80;99.90;;;;;;5042522;28;20180;-81
2023/06/01 00:28:32;;;;;;;0.10;0.10;;;17.80;99.90;;;;;;5040998;28;20212;-81
2023/06/01 00:30:58;;;;;;;0.10;0.10;;;17.70;99.90;;;;;;5041923;28;20681;-81
2023/06/01 00:33:23;;;;;;;0.10;0.10;;;17.70;99.90;;;;;;5040196;28;20184;-81
2023/06/01 00:35:49;;;;;;;0.10;0.10;;;17.60;99.90;;;;;;5043413;28;20196;-82
2023/06/01 00:38:15;;;;;;;0.10;0.10;;;17.50;99.90;;;;;;5041325;28;20216;-82
2023/06/01 00:40:40;;;;;;;0.10;0.10;;;17.40;99.90;;;;;;5039196;28;20259;-82
2023/06/01 00:43:06;;;;;;;0.10;0.10;;;17.40;99.90;;;;;;5042494;28;20189;-81
2023/06/01 00:45:32;;;;;;;0.10;0.10;;;17.40;99.90;;;;;;5040661;28;20209;-81
2023/06/01 00:47:58;;;;;;;0.10;0.10;;;17.40;99.90;;;;;;5041539;28;20209;-81
2023/06/01 00:50:23;;;;;;;0.10;0.10;;;17.40;99.90;;;;;;5041415;28;20241;-81
2023/06/01 00:52:50;;;;;;;0.10;0.10;;;17.30;99.90;;;;;;5044700;28;20187;-81
2023/06/01 00:55:16;;;;;;;0.10;0.10;;;17.30;99.90;;;;;;5046275;28;20291;-81
2023/06/01 00:57:46;;;;;;;0.10;0.10;;;17.30;99.90;;;;;;5045205;28;20186;-81
2023/06/01 01:00:12;;;;;;;0.10;0.10;;;17.30;99.90;;;;;;5046813;28;20181;-81
2023/06/01 01:02:39;;;;;;;0.10;0.10;;;17.30;99.90;;;;;;5044282;28;20697;-81
2023/06/01 01:05:09;;;;;;;0.10;0.10;;;17.30;99.90;;;;;;5044532;28;20224;-81
2023/06/01 01:07:43;;;;;;;0.10;0.10;;;17.40;99.90;;;;;;5046679;28;20685;-81
2023/06/01 01:10:31;;;;;;;0.10;0.10;;;17.50;99.90;;;;;;5045367;28;21086;-81
2023/06/01 01:13:08;;;;;;;0.10;0.10;;;17.40;99.90;;;;;;5045897;28;20185;-82
2023/06/01 01:16:01;;;;;;;0.10;0.10;;;17.40;99.90;;;;;;5042766;28;20259;-81
2023/06/01 01:18:45;;;;;;;0.10;0.10;;;17.40;99.90;;;;;;5045428;28;20268;-81
2023/06/01 01:21:22;;;;;;;0.10;0.10;;;17.30;99.90;;;;;;5043998;28;20189;-81
2023/06/01 01:24:23;;;;;;;0.10;0.10;;;17.20;99.90;;;;;;5045725;28;20292;-81
2023/06/01 01:27:05;;;;;;;0.10;0.10;;;17.20;99.90;;;;;;5046608;28;20260;-81
2023/06/01 01:29:32;;;;;;;0.10;0.10;;;17.20;99.90;;;;;;5045760;28;20776;-82
2023/06/01 01:32:00;;;;;;;0.10;0.10;;;17.10;99.90;;;;;;5043401;28;20181;-81
2023/06/01 01:34:28;;;;;;;0.10;0.10;;;17.10;99.90;;;;;;5044486;28;20237;-82
2023/06/01 01:36:54;;;;;;;0.10;0.10;;;17.00;99.90;;;;;;5046685;28;20264;-81
2023/06/01 01:39:20;;;;;;;0.10;0.10;;;17.00;99.90;;;;;;5045624;28;20194;-81
2023/06/01 01:41:45;;;;;;;0.10;0.10;;;16.90;99.90;;;;;;5045585;28;20178;-81
2023/06/01 01:44:14;;;;;;;0.10;0.10;;;16.80;99.90;;;;;;5044664;28;20713;-81
2023/06/01 01:46:49;;;;;;;0.10;0.10;;;16.80;99.90;;;;;;5044493;28;20281;-81
2023/06/01 01:49:30;;;;;;;0.10;0.10;;;16.80;99.90;;;;;;5043515;28;20224;-81
2023/06/01 01:52:33;;;;;;;0.10;0.10;;;16.80;99.90;;;;;;5041861;28;20292;-81
2023/06/01 01:55:00;;;;;;;0.10;0.10;;;16.90;99.90;;;;;;5042495;28;20225;-81
2023/06/01 01:57:26;;;;;;;0.10;0.10;;;16.90;99.90;;;;;;5043003;28;20185;-81
2023/06/01 01:59:53;;;;;;;0.10;0.10;;;16.80;99.90;;;;;;5043230;28;20194;-81
2023/06/01 02:02:18;;;;;;;0.10;0.10;;;16.70;99.90;;;;;;5043301;28;20304;-81
2023/06/01 02:04:47;;;;;;;0.10;0.10;;;16.60;99.90;;;;;;5043722;28;20229;-81
2023/06/01 02:07:13;;;;;;;0.10;0.10;;;16.50;99.90;;;;;;5043747;28;20234;-81
2023/06/01 02:09:40;;;;;;;0.10;0.10;;;16.60;99.90;;;;;;5041840;28;20190;-81
2023/06/01 02:12:06;;;;;;;0.10;0.10;;;16.60;99.90;;;;;;5044885;28;20523;-80
2023/06/01 02:14:32;;;;;;;0.10;0.10;;;16.70;99.90;;;;;;5044203;28;20302;-80
2023/06/01 02:16:57;;;;;;;0.10;0.10;;;16.70;99.90;;;;;;5045107;28;20267;-80
2023/06/01 02:19:23;;;;;;;0.10;0.10;;;16.70;99.90;;;;;;5043976;28;20181;-80
2023/06/01 02:21:48;;;;;;;0.10;0.10;;;16.70;99.90;;;;;;5045550;28;20239;-80
2023/06/01 02:24:14;;;;;;;0.10;0.10;;;16.70;99.90;;;;;;5043877;28;20213;-80
2023/06/01 02:26:40;;;;;;;0.10;0.10;;;16.60;99.90;;;;;;5042549;28;20926;-80
2023/06/01 02:29:05;;;;;;;0.10;0.10;;;16.60;99.90;;;;;;5044169;28;20701;-81
2023/06/01 02:31:32;;;;;;;0.10;0.10;;;16.50;99.90;;;;;;5044539;28;20198;-80
2023/06/01 02:33:58;;;;;;;0.10;0.10;;;16.50;99.90;;;;;;5044277;28;20269;-81
2023/06/01 02:36:25;;;;;;;0.10;0.10;;;16.50;99.90;;;;;;5043581;28;20186;-80
2023/06/01 02:38:50;;;;;;;0.10;0.10;;;16.50;99.90;;;;;;5042823;28;20268;-81
2023/06/01 02:41:16;;;;;;;0.10;0.10;;;16.50;99.90;;;;;;5042826;28;20296;-80
2023/06/01 02:43:41;;;;;;;0.10;0.10;;;16.50;99.90;;;;;;5040923;28;20209;-81
2023/06/01 02:46:07;;;;;;;0.10;0.10;;;16.50;99.90;;;;;;5043683;28;20272;-80
2023/06/01 02:48:32;;;;;;;0.10;0.10;;;16.50;99.90;;;;;;5040890;28;20209;-80
2023/06/01 02:50:58;;;;;;;0.10;0.10;;;16.50;99.90;;;;;;5043366;28;20182;-81
2023/06/01 02:53:26;;;;;;;0.10;0.10;;;16.50;99.90;;;;;;5043186;28;20658;-80
2023/06/01 02:55:52;;;;;;;0.10;0.10;;;16.40;99.90;;;;;;5042508;28;20186;-80
2023/06/01 02:58:18;;;;;;;0.10;0.10;;;16.40;99.90;;;;;;5043807;28;20239;-81
2023/06/01 03:00:43;;;;;;;0.10;0.10;;;16.30;99.90;;;;;;5043536;28;20215;-81
2023/06/01 03:03:09;;;;;;;0.10;0.10;;;16.30;99.90;;;;;;5044724;28;21005;-80
2023/06/01 03:05:35;;;;;;;0.10;0.10;;;16.30;99.90;;;;;;5043660;28;20721;-80
2023/06/01 03:08:01;;;;;;;0.10;0.10;;;16.20;99.90;;;;;;5043253;28;20214;-81
2023/06/01 03:10:27;;;;;;;0.10;0.10;;;16.20;99.90;;;;;;5044210;28;20186;-80
2023/06/01 03:12:52;;;;;;;0.10;0.10;;;16.20;99.90;;;;;;5042305;28;20181;-81
2023/06/01 03:15:18;;;;;;;0.10;0.10;;;16.30;99.90;;;;;;5041849;28;20197;-81
2023/06/01 03:17:43;;;;;;;0.10;0.10;;;16.20;99.90;;;;;;5042539;28;20178;-80
2023/06/01 03:20:14;;;;;;;0.10;0.10;;;16.20;99.90;;;;;;5043232;28;20563;-81
2023/06/01 03:22:44;;;;;;;0.10;0.10;;;16.30;99.90;;;;;;5041747;28;20185;-80
2023/06/01 03:25:11;;;;;;;0.10;0.10;;;16.30;99.90;;;;;;5042952;28;20230;-80
2023/06/01 03:27:36;;;;;;;0.10;0.10;;;16.40;99.90;;;;;;5041494;28;20210;-80
2023/06/01 03:30:03;;;;;;;0.10;0.10;;;16.40;99.90;;;;;;5042275;28;20185;-81
2023/06/01 03:32:29;;;;;;;0.10;0.10;;;16.40;99.90;;;;;;5041882;28;20507;-80
2023/06/01 03:34:55;;;;;;;0.10;0.10;;;16.40;99.90;;;;;;5040363;28;20679;-80
2023/06/01 03:37:21;;;;;;;0.10;0.10;;;16.40;99.90;;;;;;5042255;28;20192;-80
2023/06/01 03:39:47;;;;;;;0.10;0.10;;;16.50;99.90;;;;;;5041337;28;20196;-81
2023/06/01 03:42:12;;;;;;;0.10;0.10;;;16.80;99.90;;;;;;5041863;28;20184;-80
2023/06/01 03:44:41;;;;;;;0.10;0.10;;;17.40;99.90;;;;;;5041152;28;20210;-80
2023/06/01 03:47:07;;;;;;;0.10;0.10;;;17.80;99.90;;;;;;5043625;28;20184;-80
2023/06/01 03:49:32;;;;;;;0.10;0.10;;;18.30;99.90;;;;;;5043569;28;20280;-81
2023/06/01 03:51:58;;;;;;;0.10;0.10;;;18.80;99.90;;;;;;5042013;28;20188;-81
2023/06/01 03:54:23;;;;;;;0.10;0.10;;;18.90;99.90;;;;;;5041475;28;20777;-80
2023/06/01 03:56:49;;;;;;;0.10;0.10;;;19.20;99.90;;;;;;5041821;28;20178;-81
2023/06/01 03:59:15;;;;;;;0.10;0.10;;;19.80;99.90;;;;;;5043225;28;20287;-80
2023/06/01 04:01:42;;;;;;;0.10;0.10;;;20.30;99.90;;;;;;5041070;28;20188;-80
2023/06/01 04:04:08;;;;;;;0.10;0.10;;;21.30;99.90;;;;;;5040989;28;20697;-81
2023/06/01 04:06:35;;;;;;;0.10;0.10;;;21.70;99.90;;;;;;5039921;28;20194;-81
2023/06/01 04:09:06;;;;;;;0.10;0.10;;;21.80;99.90;;;;;;5042003;28;20217;-80
2023/06/01 04:11:34;;;;;;;0.10;0.10;;;21.50;99.90;;;;;;5043570;28;20180;-80
2023/06/01 04:14:00;;;;;;;0.10;0.10;;;21.50;99.90;;;;;;5043971;28;20207;-80
2023/06/01 04:16:26;;;;;;;0.10;0.10;;;21.60;99.90;;;;;;5041779;28;20184;-80
2023/06/01 04:18:51;;;;;;;0.10;0.10;;;22.30;99.90;;;;;;5044302;28;20278;-80
2023/06/01 04:21:19;;;;;;;0.10;0.10;;;21.60;99.90;;;;;;5042968;28;20701;-81
2023/06/01 04:23:45;;;;;;;0.10;0.10;;;21.50;99.90;;;;;;5043379;28;20197;-80
2023/06/01 04:26:11;;;;;;;0.10;0.10;;;21.20;99.90;;;;;;5042923;28;20678;-80
2023/06/01 04:28:43;;;;;;;0.10;0.10;;;21.00;99.90;;;;;;5041182;28;20209;-80
2023/06/01 04:31:19;;;;;;;0.10;0.10;;;20.80;99.90;;;;;;5041279;28;20527;-81
2023/06/01 04:33:52;;;;;;;0.10;0.10;;;20.00;99.90;;;;;;5038193;28;20201;-80
2023/06/01 04:36:21;;;;;;;0.10;0.10;;;19.50;99.90;;;;;;5035761;28;20570;-81
2023/06/01 04:38:57;;;;;;;0.10;0.10;;;18.70;99.90;;;;;;5041841;28;20181;-80
2023/06/01 04:41:23;;;;;;;0.10;0.10;;;18.50;99.90;;;;;;5050198;28;20885;-81
2023/06/01 04:43:52;;;;;;;0.10;0.10;;;18.30;99.90;;;;;;5039269;28;20266;-81
2023/06/01 04:46:23;;;;;;;0.10;0.10;;;18.40;99.90;;;;;;5038518;28;20213;-81
2023/06/01 04:48:51;;;;;;;0.10;0.10;;;18.70;99.90;;;;;;5038600;28;20824;-82
2023/06/01 04:51:21;;;;;;;0.10;0.10;;;18.60;99.90;;;;;;5042314;28;20232;-81
2023/06/01 04:53:51;;;;;;;0.10;0.10;;;18.60;99.90;;;;;;5041204;28;20198;-80
2023/06/01 04:56:24;;;;;;;0.10;0.10;;;18.50;99.90;;;;;;5039889;28;20206;-80
2023/06/01 04:58:51;;;;;;;0.10;0.10;;;18.40;99.90;;;;;;5042955;28;20176;-80
2023/06/01 05:01:17;;;;;;;0.10;0.10;;;18.60;99.90;;;;;;5040706;28;20307;-81
2023/06/01 05:03:43;;;;;;;0.10;0.10;;;18.70;99.90;;;;;;5041404;28;20299;-81
2023/06/01 05:06:11;;;;;;;0.10;0.10;;;18.80;99.90;;;;;;5039570;28;20204;-80
2023/06/01 05:08:37;;;;;;;0.10;0.10;;;18.90;99.90;;;;;;5035754;28;20204;-80
2023/06/01 05:11:03;;;;;;;0.10;0.10;;;19.00;99.90;;;;;;5035373;28;20909;-82
2023/06/01 05:13:29;;;;;;;0.10;0.10;;;19.10;99.90;;;;;;5035943;28;20201;-82
2023/06/01 05:15:55;;;;;;;0.10;0.10;;;19.10;99.90;;;;;;5038310;28;20171;-82
2023/06/01 05:18:20;;;;;;;0.10;0.10;;;19.10;99.90;;;;;;5037351;28;20194;-82
2023/06/01 05:20:46;;;;;;;0.10;0.10;;;19.20;99.90;;;;;;5031192;28;20439;-82
2023/06/01 05:23:11;;;;;;;0.10;0.10;;;19.20;99.90;;;;;;5040953;28;20196;-81
2023/06/01 05:25:37;;;;;;;0.10;0.10;;;19.00;99.90;;;;;;5037674;28;20266;-82
2023/06/01 05:28:02;;;;;;;0.10;0.10;;;19.00;99.90;;;;;;5038554;28;20213;-82
2023/06/01 05:30:28;;;;;;;0.10;0.10;;;19.10;99.90;;;;;;5039595;28;20190;-83
2023/06/01 05:32:53;;;;;;;0.10;0.10;;;19.00;99.90;;;;;;5043695;28;20217;-82
2023/06/01 05:35:20;;;;;;;0.10;0.10;;;19.10;99.90;;;;;;5044272;28;20205;-82
2023/06/01 05:37:45;;;;;;;0.10;0.10;;;19.30;99.90;;;;;;5043491;28;20678;-82
2023/06/01 05:40:11;;;;;;;0.10;0.10;;;19.30;99.90;;;;;;5045616;28;20303;-82
2023/06/01 05:42:37;;;;;;;0.10;0.10;;;19.40;99.90;;;;;;5046439;28;20200;-82
2023/06/01 05:45:02;;;;;;;0.10;0.10;;;19.30;99.90;;;;;;5046860;28;20212;-83
2023/06/01 05:47:28;;;;;;;0.10;0.10;;;19.40;99.90;;;;;;5043350;28;20288;-82
2023/06/01 05:49:54;;;;;;;0.10;0.10;;;19.50;99.90;;;;;;5046293;28;20261;-82
2023/06/01 05:52:19;;;;;;;0.10;0.10;;;19.60;99.90;;;;;;5045595;28;20173;-82
2023/06/01 05:54:45;;;;;;;0.10;0.10;;;19.60;99.90;;;;;;5042724;28;21081;-84
2023/06/01 05:57:10;;;;;;;0.10;0.10;;;19.70;99.90;;;;;;5044742;28;21239;-84
2023/06/01 05:59:36;;;;;;;0.10;0.10;;;19.90;99.90;;;;;;5043045;28;20197;-81
2023/06/01 06:02:01;;;;;;;0.10;0.10;;;20.00;99.90;;;;;;5043019;28;21039;-81
2023/06/01 06:04:27;;;;;;;0.10;0.10;;;20.10;99.90;;;;;;5047365;28;20455;-80
2023/06/01 06:06:53;;;;;;;0.10;0.10;;;20.40;99.90;;;;;;5046168;28;20197;-81
2023/06/01 06:09:18;;;;;;;0.10;0.10;;;20.50;99.90;;;;;;5044859;28;20243;-82
2023/06/01 06:11:44;;;;;;;0.10;0.10;;;20.50;99.90;;;;;;5044098;28;20182;-81
2023/06/01 06:14:11;;;;;;;0.10;0.10;;;20.60;99.90;;;;;;5043971;28;20212;-81
2023/06/01 06:16:37;;;;;;;0.10;0.10;;;20.70;99.90;;;;;;5045185;28;20647;-82
2023/06/01 06:19:02;;;;;;;0.10;0.10;;;20.70;99.90;;;;;;5041000;28;20189;-81
2023/06/01 06:21:28;;;;;;;0.10;0.10;;;20.80;99.90;;;;;;5037974;28;20702;-82
2023/06/01 06:23:58;;;;;;;0.10;0.10;;;20.90;99.90;;;;;;5040756;28;20209;-81
2023/06/01 06:26:27;;;;;;;0.10;0.10;;;21.10;99.90;;;;;;5040771;28;20177;-81
2023/06/01 06:28:52;;;;;;;0.10;0.10;;;21.20;99.90;;;;;;5042752;28;20279;-80
2023/06/01 06:31:18;;;;;;;0.10;0.10;;;21.30;99.90;;;;;;5040624;28;20209;-81
2023/06/01 06:33:43;;;;;;;0.10;0.10;;;21.40;99.90;;;;;;5043617;28;20206;-80
2023/06/01 06:36:09;;;;;;;0.10;0.10;;;21.40;99.90;;;;;;5047862;28;20178;-80
2023/06/01 06:38:35;;;;;;;0.10;0.10;;;21.50;99.90;;;;;;5043014;28;20562;-82
2023/06/01 06:41:00;;;;;;;0.10;0.10;;;21.60;99.90;;;;;;5046780;28;20194;-81
2023/06/01 06:43:26;;;;;;;0.10;0.10;;;21.60;99.90;;;;;;5045160;28;20264;-81
2023/06/01 06:45:51;;;;;;;0.10;0.10;;;21.70;99.90;;;;;;5045588;28;20177;-81
2023/06/01 06:48:17;;;;;;;0.10;0.10;;;21.90;99.90;;;;;;5043548;28;20206;-81
2023/06/01 06:50:44;;;;;;;0.10;0.10;;;22.00;99.90;;;;;;5042773;28;20190;-81
2023/06/01 06:53:10;;;;;;;0.10;0.10;;;22.10;99.90;;;;;;5044156;28;20189;-81
2023/06/01 06:55:36;;;;;;;0.10;0.10;;;22.20;99.90;;;;;;5040389;28;20208;-81
2023/06/01 06:58:01;;;;;;;0.10;0.10;;;22.20;99.90;;;;;;5043751;28;20186;-81
2023/06/01 07:00:27;;;;;;;0.10;0.10;;;22.30;99.90;;;;;;5042477;28;20223;-81
2023/06/01 07:02:53;;;;;;;0.10;0.10;;;22.50;99.90;;;;;;5042978;28;20527;-81
2023/06/01 07:05:19;;;;;;;0.10;0.10;;;22.60;99.90;;;;;;5045071;28;20982;-81
2023/06/01 07:07:44;;;;;;;0.10;0.10;;;22.60;99.90;;;;;;5043131;28;20301;-81
2023/06/01 07:10:10;;;;;;;0.10;0.10;;;22.80;99.90;;;;;;5042766;28;20190;-81
2023/06/01 07:12:36;;;;;;;0.10;0.10;;;22.70;99.90;;;;;;5041143;28;20269;-81
2023/06/01 07:15:02;;;;;;;0.10;0.10;;;22.70;99.90;;;;;;5039498;28;20223;-82
2023/06/01 07:17:27;;;;;;;0.10;0.10;;;23.00;99.90;;;;;;5041967;28;20235;-82
2023/06/01 07:19:53;;;;;;;0.10;0.10;;;23.10;99.90;;;;;;5040380;28;20178;-82
2023/06/01 07:22:20;;;;;;;0.10;0.10;;;23.20;99.90;;;;;;5040639;28;20259;-82
2023/06/01 07:24:47;;;;;;;0.10;0.10;;;23.50;99.90;;;;;;5041021;28;20255;-83
2023/06/01 07:27:13;;;;;;;0.10;0.10;;;23.70;99.90;;;;;;5041363;28;20204;-83
2023/06/01 07:29:39;;;;;;;0.10;0.10;;;23.10;99.90;;;;;;5042318;28;20219;-82
2023/06/01 07:32:05;;;;;;;0.10;0.10;;;23.50;99.90;;;;;;5039932;28;20182;-82
2023/06/01 07:34:33;;;;;;;0.10;0.10;;;23.20;99.90;;;;;;5039324;28;20243;-83
2023/06/01 07:37:01;;;;;;;0.10;0.10;;;23.40;99.90;;;;;;5038391;28;20185;-83
2023/06/01 07:39:26;;;;;;;0.10;0.10;;;23.40;99.90;;;;;;5041781;28;20217;-82
2023/06/01 07:41:55;;;;;;;0.10;0.10;;;23.60;99.90;;;;;;5045144;28;20224;-82
2023/06/01 07:44:20;;;;;;;0.10;0.10;;;23.70;99.90;;;;;;5042653;28;20236;-82
2023/06/01 07:46:46;;;;;;;0.10;0.10;;;23.40;99.90;;;;;;5044750;28;20185;-81
2023/06/01 07:49:13;;;;;;;0.10;0.10;;;23.60;99.90;;;;;;5044148;28;20727;-82
2023/06/01 07:51:40;;;;;;;0.10;0.10;;;23.80;99.90;;;;;;5042252;28;20189;-82
2023/06/01 07:54:07;;;;;;;0.10;0.10;;;23.90;99.90;;;;;;5037509;28;21008;-82
2023/06/01 07:56:34;;;;;;;0.10;0.10;;;24.10;99.90;;;;;;5041826;28;20705;-82
2023/06/01 07:58:59;;;;;;;0.10;0.10;;;23.70;99.90;;;;;;5036339;28;20186;-82
2023/06/01 08:01:25;;;;;;;0.10;0.10;;;24.10;99.90;;;;;;5031804;28;20196;-82
2023/06/01 08:03:51;;;;;;;0.10;0.10;;;24.40;99.90;;;;;;5040843;28;20234;-82
2023/06/01 08:06:17;;;;;;;0.10;0.10;;;24.20;99.90;;;;;;5037326;28;20228;-82
2023/06/01 08:08:43;;;;;;;0.67;0.67;;;24.10;99.90;;;;;;5034835;28;20911;-82
2023/06/01 08:11:09;;;;;;;0.10;0.10;;;24.10;99.90;;;;;;5037193;28;20267;-82
2023/06/01 08:13:36;;;;;;;0.10;0.10;;;24.10;99.90;;;;;;5030695;28;20194;-82
2023/06/01 08:16:02;;;;;;;0.10;0.10;;;24.10;99.90;;;;;;5036104;28;20183;-82
2023/06/01 08:18:28;;;;;;;0.10;0.10;;;24.10;99.90;;;;;;5034567;28;20569;-82
2023/06/01 08:20:55;;;;;;;0.10;0.10;;;24.20;99.90;;;;;;5038650;28;20186;-81
2023/06/01 08:23:22;;;;;;;0.10;0.10;;;24.70;99.90;;;;;;5041496;28;20181;-81
2023/06/01 08:25:48;;;;;;;0.10;0.10;;;25.00;99.90;;;;;;5038900;28;20177;-82
2023/06/01 08:28:14;;;;;;;0.10;0.10;;;25.40;99.90;;;;;;5041003;28;20579;-82
2023/06/01 08:30:39;;;;;;;0.10;0.10;;;25.50;99.90;;;;;;5042003;28;20236;-81
2023/06/01 08:33:05;;;;;;;0.10;0.10;;;25.00;99.90;;;;;;5040154;28;20272;-82
2023/06/01 08:35:33;;;;;;;0.10;0.10;;;24.80;99.90;;;;;;5035678;28;20246;-82
2023/06/01 08:38:02;;;;;;;0.10;0.10;;;24.80;99.90;;;;;;5036753;28;20205;-82
2023/06/01 08:40:31;;;;;;;0.10;0.10;;;24.30;99.90;;;;;;5041405;28;20235;-81
2023/06/01 08:43:19;;;;;;;0.10;0.10;;;24.80;99.90;;;;;;5040590;28;20190;-81
2023/06/01 08:45:47;;;;;;;0.10;0.10;;;25.30;99.90;;;;;;5040686;28;20209;-82
2023/06/01 08:48:16;;;;;;;0.10;0.10;;;25.60;99.90;;;;;;5039540;28;20309;-82
2023/06/01 08:50:45;;;;;;;0.10;0.10;;;25.20;99.90;;;;;;5038080;28;20232;-82
2023/06/01 08:53:11;;;;;;;0.10;0.10;;;25.50;99.90;;;;;;5038840;28;20208;-81
2023/06/01 08:55:36;;;;;;;0.10;0.10;;;24.50;99.90;;;;;;5039031;28;20283;-81
2023/06/01 08:58:03;;;;;;;0.10;0.10;;;25.00;99.90;;;;;;5037832;28;20215;-83
2023/06/01 09:00:32;;;;;;;0.10;0.10;;;24.60;99.90;;;;;;5038686;28;21267;-84
2023/06/01 09:02:57;;;;;;;0.10;0.10;;;24.80;99.90;;;;;;5037686;28;20580;-81
2023/06/01 09:05:23;;;;;;;0.10;0.10;;;25.10;99.90;;;;;;5039060;28;20237;-81
2023/06/01 09:07:49;;;;;;;0.10;0.10;;;25.40;99.90;;;;;;5040042;28;20213;-81
2023/06/01 09:10:15;;;;;;;0.10;0.10;;;25.50;99.90;;;;;;5038912;28;20186;-81
2023/06/01 09:12:54;;;;;;;0.10;0.10;;;25.00;99.90;;;;;;5036524;28;20194;-81
2023/06/01 09:15:21;;;;;;;0.10;0.10;;;25.30;99.90;;;;;;5042081;28;20220;-81
2023/06/01 09:17:51;;;;;;;0.10;0.10;;;25.70;99.90;;;;;;5039519;28;20815;-82
2023/06/01 09:20:27;;;;;;;0.10;0.10;;;25.70;99.90;;;;;;5041553;28;20232;-81
2023/06/01 09:22:54;;;;;;;0.10;0.10;;;25.60;99.90;;;;;;5046099;28;20353;-82
2023/06/01 09:25:26;;;;;;;0.10;0.10;;;25.80;99.90;;;;;;5044409;28;20574;-81
2023/06/01 09:27:53;;;;;;;0.10;0.10;;;25.40;99.90;;;;;;5042845;28;20213;-81
2023/06/01 09:30:20;;;;;;;0.10;0.10;;;25.80;99.90;;;;;;5040809;28;20184;-82
2023/06/01 09:32:53;;;;;;;0.10;0.10;;;25.70;99.90;;;;;;5042814;28;20177;-82
2023/06/01 09:35:40;;;;;;;0.10;0.10;;;25.20;99.90;;;;;;5044646;28;20205;-81
2023/06/01 09:38:06;;;;;;;0.10;0.10;;;24.90;99.90;;;;;;5040923;28;20213;-81
2023/06/01 09:40:33;;;;;;;0.10;0.10;;;25.00;99.90;;;;;;5045612;28;20193;-82
2023/06/01 09:42:59;;;;;;;0.10;0.10;;;25.20;99.90;;;;;;5040241;28;20182;-82
2023/06/01 09:45:25;;;;;;;0.10;0.10;;;25.50;99.90;;;;;;5041402;28;20209;-81
2023/06/01 09:47:52;;;;;;;0.10;0.10;;;24.90;99.90;;;;;;5042042;28;20596;-81
2023/06/01 09:50:34;;;;;;;0.10;0.10;;;25.20;99.90;;;;;;5042312;28;20182;-81
2023/06/01 09:53:00;;;;;;;0.10;0.10;;;25.30;99.90;;;;;;5040248;28;20178;-81
2023/06/01 09:55:26;;;;;;;0.10;0.10;;;25.00;99.90;;;;;;5037874;28;20201;-81
2023/06/01 09:57:51;;;;;;;0.10;0.10;;;25.30;99.90;;;;;;5042749;28;20610;-81
2023/06/01 10:00:27;;;;;;;0.10;0.10;;;25.40;99.90;;;;;;5040001;28;20181;-81
2023/06/01 10:02:53;;;;;;;0.10;0.10;;;25.60;99.90;;;;;;5042046;28;20651;-82
2023/06/01 10:05:20;;;;;;;0.10;0.10;;;26.00;99.90;;;;;;5044176;28;20263;-82
2023/06/01 10:07:47;;;;;;;0.10;0.10;;;26.20;99.90;;;;;;5043392;28;20281;-81
2023/06/01 10:10:15;;;;;;;0.10;0.10;;;25.90;99.90;;;;;;5045122;28;20603;-81
2023/06/01 10:12:43;;;;;;;0.10;0.10;;;26.50;99.90;;;;;;5043232;28;20182;-85
2023/06/01 10:15:11;;;;;;;0.10;0.10;;;26.70;99.90;;;;;;5035286;28;20197;-81
2023/06/01 10:17:42;;;;;;;0.10;0.10;;;26.40;99.90;;;;;;5042264;28;20174;-81
2023/06/01 10:20:08;;;;;;;0.10;0.10;;;26.60;99.90;;;;;;5041872;28;20180;-80
2023/06/01 10:22:35;;;;;;;0.10;0.10;;;26.10;99.90;;;;;;5041958;28;20650;-81
2023/06/01 10:25:01;;;;;;;0.10;0.10;;;25.30;99.90;;;;;;5039897;28;20194;-81
2023/06/01 10:27:33;;;;;;;0.10;0.10;;;25.20;99.90;;;;;;5038799;28;20275;-81
2023/06/01 10:29:59;;;;;;;0.10;0.10;;;25.60;99.90;;;;;;5040049;28;20178;-81
2023/06/01 10:32:36;;;;;;;0.10;0.10;;;26.00;99.90;;;;;;5042491;28;20185;-81
2023/06/01 10:35:07;;;;;;;0.10;0.10;;;26.10;99.90;;;;;;5040188;28;20227;-81
2023/06/01 10:37:36;;;;;;;0.10;0.10;;;26.00;99.90;;;;;;5044025;28;20213;-81
2023/06/01 10:40:16;;;;;;;0.10;0.10;;;26.20;99.90;;;;;;5037273;28;20198;-81
2023/06/01 10:42:42;;;;;;;0.10;0.10;;;26.80;99.90;;;;;;5042538;28;20571;-81
2023/06/01 10:45:28;;;;;;;0.10;0.10;;;27.10;99.90;;;;;;5042268;28;20201;-80
2023/06/01 10:47:54;;;;;;;0.10;0.10;;;27.20;99.90;;;;;;5040377;28;20233;-81
2023/06/01 10:50:20;;;;;;;0.10;0.10;;;27.20;99.90;;;;;;5043728;28;20205;-81
2023/06/01 10:52:46;;;;;;;0.20;0.20;;;26.60;99.90;;;;;;5041017;28;20185;-81
2023/06/01 10:55:13;;;;;;;0.10;0.10;;;26.40;99.90;;;;;;5041161;28;21899;-81
2023/06/01 10:57:40;;;;;;;0.10;0.10;;;26.20;99.90;;;;;;5044171;28;20181;-81
2023/06/01 11:00:12;;;;;;;0.10;0.10;;;26.80;99.90;;;;;;5042533;28;20209;-81
2023/06/01 11:02:44;;;;;;;0.10;0.10;;;27.20;99.90;;;;;;5040526;28;20192;-81
2023/06/01 11:05:38;;;;;;;0.10;0.10;;;27.70;99.90;;;;;;5037994;28;20254;-81
2023/06/01 11:08:05;;;;;;;0.10;0.10;;;28.00;99.90;;;;;;5042241;28;20208;-81
2023/06/01 11:11:10;;;;;;;0.10;0.10;;;27.60;99.90;;;;;;5040153;28;20186;-84
2023/06/01 11:13:37;;;;;;;0.10;0.10;;;27.50;99.90;;;;;;5035293;28;20236;-81
2023/06/01 11:16:18;;;;;;;0.10;0.10;;;27.20;99.90;;;;;;5041665;28;20178;-81
2023/06/01 11:18:49;;;;;;;0.10;0.10;;;27.10;99.90;;;;;;5044855;28;20265;-81
2023/06/01 11:21:23;;;;;;;0.10;0.10;;;26.50;99.90;;;;;;5043715;28;20360;-81
2023/06/01 11:23:49;;;;;;;0.10;0.10;;;26.70;99.90;;;;;;5036345;28;20210;-81
2023/06/01 11:26:17;;;;;;;0.10;0.10;;;26.90;99.90;;;;;;5041034;28;20196;-80
2023/06/01 11:28:43;;;;;;;0.10;0.10;;;26.90;99.90;;;;;;5038674;28;21163;-80
2023/06/01 11:31:10;;;;;;;0.10;0.10;;;27.40;99.90;;;;;;5040363;28;21046;-81
2023/06/01 11:33:39;;;;;;;0.10;0.10;;;27.60;99.90;;;;;;5038614;28;20232;-80
2023/06/01 11:36:05;;;;;;;0.10;0.10;;;28.00;99.90;;;;;;5036343;28;20178;-80
2023/06/01 11:38:42;;;;;;;0.10;0.10;;;28.40;99.90;;;;;;5039130;28;20218;-80
2023/06/01 11:41:08;;;;;;;0.10;0.10;;;27.50;99.90;;;;;;5039297;28;20717;-81
2023/06/01 11:43:35;;;;;;;0.10;0.10;;;27.10;99.90;;;;;;5039416;28;20554;-80
2023/06/01 11:46:02;;;;;;;0.10;0.10;;;27.40;99.90;;;;;;5036464;28;20182;-81
2023/06/01 11:48:27;;;;;;;0.10;0.10;;;27.10;99.90;;;;;;5037590;28;20744;-81
2023/06/01 11:50:54;;;;;;;0.10;0.10;;;27.00;99.90;;;;;;5027259;28;20197;-82
2023/06/01 11:53:20;;;;;;;0.10;0.10;;;26.70;99.90;;;;;;5034269;28;20218;-80
2023/06/01 11:55:50;;;;;;;0.10;0.10;;;27.00;99.90;;;;;;5035496;28;20236;-80
2023/06/01 11:58:30;;;;;;;0.10;0.10;;;27.60;99.90;;;;;;5038053;28;20190;-80
2023/06/01 12:00:57;;;;;;;0.10;0.10;;;27.70;99.90;;;;;;5038145;28;20745;-80
2023/06/01 12:03:26;;;;;;;0.10;0.10;;;27.40;99.90;;;;;;5042651;28;20186;-80
2023/06/01 12:05:52;;;;;;;0.10;0.10;;;27.10;99.90;;;;;;5038924;28;20300;-80
2023/06/01 12:08:20;;;;;;;0.10;0.10;;;27.20;99.90;;;;;;5038559;28;20202;-80
2023/06/01 12:10:47;;;;;;;0.10;0.10;;;27.50;99.90;;;;;;5035785;28;20174;-80
2023/06/01 12:13:14;;;;;;;0.10;0.10;;;27.40;99.90;;;;;;5042550;28;20182;-80
2023/06/01 12:15:40;;;;;;;0.10;0.10;;;26.90;99.90;;;;;;5035536;28;20300;-80
2023/06/01 12:18:06;;;;;;;0.10;0.10;;;27.40;99.90;;;;;;5041264;28;20315;-80
2023/06/01 12:20:42;;;;;;;0.10;0.10;;;27.80;99.90;;;;;;5036733;28;20200;-80
2023/06/01 12:23:14;;;;;;;0.10;0.10;;;27.90;99.90;;;;;;5048330;28;20186;-80
2023/06/01 12:25:59;;;;;;;0.10;0.10;;;27.60;99.90;;;;;;5040129;28;20198;-80
2023/06/01 12:28:35;;;;;;;0.10;0.10;;;28.00;99.90;;;;;;5040838;28;20243;-80
2023/06/01 12:31:15;;;;;;;0.10;0.10;;;27.80;99.90;;;;;;5039986;28;20527;-80
2023/06/01 12:33:43;;;;;;;0.10;0.10;;;27.80;99.90;;;;;;5030778;28;21032;-80
2023/06/01 12:36:09;;;;;;;0.10;0.10;;;28.20;99.90;;;;;;5037705;28;21086;-80
2023/06/01 12:38:52;;;;;;;0.10;0.10;;;27.70;99.90;;;;;;5041734;28;20234;-80
2023/06/01 12:41:18;;;;;;;0.10;0.10;;;27.50;99.90;;;;;;5037212;28;20204;-80
2023/06/01 12:43:45;;;;;;;0.10;0.10;;;27.80;99.90;;;;;;5037665;28;20174;-80
2023/06/01 12:46:25;;;;;;;0.10;0.10;;;28.30;99.90;;;;;;5037805;28;20224;-80
2023/06/01 12:49:10;;;;;;;0.10;0.10;;;28.30;99.90;;;;;;5042228;28;20201;-80
2023/06/01 12:51:36;;;;;;;0.10;0.10;;;28.40;99.90;;;;;;5043184;28;20182;-80
2023/06/01 12:54:02;;;;;;;0.10;0.10;;;28.10;99.90;;;;;;5043410;28;20216;-80